createdAt,value
2022-12-20T00:01:30.244Z,24.38
2022-12-20T00:03:58.831Z,22.92
2022-12-20T00:06:26.352Z,23.67
2022-12-20T00:08:55.503Z,24.67
2022-12-20T00:11:23.137Z,22.60
2022-12-20T00:13:50.072Z,22.70
2022-12-20T00:16:22.181Z,23.05
2022-12-20T00:18:53.279Z,24.70
2022-12-20T00:21:20.709Z,23.13
2022-12-20T00:23:48.216Z,20.48
2022-12-20T00:26:17.398Z,19.75
2022-12-20T00:28:45.418Z,19.70
2022-12-20T00:31:15.819Z,17.90
2022-12-20T00:33:46.604Z,17.02
2022-12-20T00:36:14.062Z,19.20
2022-12-20T00:38:41.166Z,17.83
2022-12-20T00:41:10.696Z,19.67
2022-12-20T00:43:38.865Z,20.02
2022-12-20T00:46:07.554Z,16.90
2022-12-20T00:48:34.692Z,19.17
2022-12-20T00:51:04.651Z,19.02
2022-12-20T00:53:32.831Z,19.70
2022-12-20T00:56:00.173Z,17.58
2022-12-20T00:58:28.149Z,18.42
2022-12-20T01:00:57.029Z,16.48
2022-12-20T01:03:25.982Z,15.73
2022-12-20T01:05:59.453Z,18.77
2022-12-20T01:08:31.228Z,18.02
2022-12-20T01:11:28.304Z,17.58
2022-12-20T01:13:57.798Z,17.63
2022-12-20T01:16:30.997Z,18.98
2022-12-20T01:18:58.081Z,16.15
2022-12-20T01:21:27.220Z,18.80
2022-12-20T01:23:54.643Z,16.70
2022-12-20T01:26:25.140Z,14.45
2022-12-20T01:28:57.159Z,14.98
2022-12-20T01:31:24.851Z,15.57
2022-12-20T01:33:52.719Z,16.98
2022-12-20T01:36:42.557Z,15.95
2022-12-20T01:39:13.569Z,14.10
2022-12-20T01:41:41.961Z,16.73
2022-12-20T01:44:18.532Z,18.52
2022-12-20T01:46:47.107Z,16.45
2022-12-20T01:49:19.925Z,16.98
2022-12-20T01:51:54.880Z,16.65
2022-12-20T01:54:29.586Z,16.02
2022-12-20T01:57:03.801Z,15.73
2022-12-20T01:59:33.880Z,15.25
2022-12-20T02:02:05.495Z,14.10
2022-12-20T02:04:32.872Z,14.13
2022-12-20T02:07:01.706Z,15.35
2022-12-20T02:09:29.239Z,15.05
2022-12-20T02:11:59.127Z,16.35
2022-12-20T02:14:56.366Z,14.18
2022-12-20T02:17:26.066Z,16.27
2022-12-20T02:20:18.524Z,15.20
2022-12-20T02:23:09.113Z,12.52
2022-12-20T02:26:20.927Z,14.32
2022-12-20T02:28:50.525Z,16.67
2022-12-20T02:31:20.975Z,15.80
2022-12-20T02:33:49.598Z,17.33
2022-12-20T02:36:19.931Z,18.17
2022-12-20T02:38:46.775Z,17.45
2022-12-20T02:41:57.633Z,16.13
2022-12-20T02:44:45.424Z,16.33
2022-12-20T02:47:21.265Z,17.23
2022-12-20T02:49:50.640Z,16.55
2022-12-20T02:52:21.208Z,19.55
2022-12-20T02:54:48.644Z,17.80
2022-12-20T02:57:25.587Z,20.58
2022-12-20T03:00:11.653Z,19.60
2022-12-20T03:02:58.662Z,19.10
2022-12-20T03:05:27.947Z,17.58
2022-12-20T03:07:56.028Z,17.83
2022-12-20T03:10:23.500Z,16.05
2022-12-20T03:12:50.308Z,17.67
2022-12-20T03:15:17.205Z,15.90
2022-12-20T03:17:44.016Z,17.58
2022-12-20T03:20:11.330Z,15.63
2022-12-20T03:22:39.231Z,16.70
2022-12-20T03:25:06.589Z,15.02
2022-12-20T03:27:34.004Z,13.68
2022-12-20T03:30:00.903Z,15.05
2022-12-20T03:32:27.736Z,12.98
2022-12-20T03:34:54.628Z,14.93
2022-12-20T03:37:21.423Z,13.32
2022-12-20T03:39:48.307Z,13.05
2022-12-20T03:42:15.162Z,13.38
2022-12-20T03:44:42.534Z,12.68
2022-12-20T03:47:09.359Z,13.55
2022-12-20T03:49:36.248Z,13.38
2022-12-20T03:52:03.067Z,12.50
2022-12-20T03:54:29.868Z,12.25
2022-12-20T03:56:57.206Z,12.45
2022-12-20T03:59:24.110Z,13.65
2022-12-20T04:01:50.994Z,12.93
2022-12-20T04:04:18.269Z,13.13
2022-12-20T04:06:45.083Z,13.05
2022-12-20T04:09:11.923Z,13.43
2022-12-20T04:11:39.539Z,12.32
2022-12-20T04:14:07.009Z,14.38
2022-12-20T04:16:34.434Z,12.55
2022-12-20T04:19:01.378Z,13.35
2022-12-20T04:21:30.802Z,11.82
2022-12-20T04:23:58.706Z,12.50
2022-12-20T04:26:26.406Z,12.07
2022-12-20T04:28:53.263Z,12.23
2022-12-20T04:31:24.179Z,11.60
2022-12-20T04:33:51.635Z,11.98
2022-12-20T04:36:18.444Z,12.20
2022-12-20T04:38:45.350Z,12.88
2022-12-20T04:41:22.252Z,11.43
2022-12-20T04:43:54.690Z,11.35
2022-12-20T04:46:23.153Z,9.82
2022-12-20T04:48:59.233Z,11.65
2022-12-20T04:51:27.438Z,11.60
2022-12-20T04:53:55.032Z,10.85
2022-12-20T04:56:28.549Z,12.95
2022-12-20T04:58:58.079Z,11.38
2022-12-20T05:01:25.831Z,12.20
2022-12-20T05:03:53.402Z,11.88
2022-12-20T05:06:20.223Z,11.05
2022-12-20T05:08:47.899Z,11.20
2022-12-20T05:11:15.071Z,10.80
2022-12-20T05:13:42.236Z,9.93
2022-12-20T05:16:09.554Z,11.57
2022-12-20T05:18:36.564Z,12.27
2022-12-20T05:21:22.729Z,11.57
2022-12-20T05:24:08.179Z,12.35
2022-12-20T05:26:37.706Z,12.43
2022-12-20T05:29:06.219Z,12.40
2022-12-20T05:31:33.941Z,11.85
2022-12-20T05:34:00.882Z,11.70
2022-12-20T05:36:28.000Z,11.48
2022-12-20T05:39:00.147Z,11.43
2022-12-20T05:41:30.723Z,11.27
2022-12-20T05:43:58.199Z,12.15
2022-12-20T05:46:25.691Z,15.43
2022-12-20T05:48:53.162Z,14.93
2022-12-20T05:51:20.386Z,16.10
2022-12-20T05:53:47.230Z,14.93
2022-12-20T05:56:14.043Z,16.88
2022-12-20T05:58:40.836Z,13.60
2022-12-20T06:01:10.501Z,12.05
2022-12-20T06:03:39.402Z,14.45
2022-12-20T06:06:13.590Z,12.65
2022-12-20T06:08:41.962Z,16.40
2022-12-20T06:11:08.893Z,13.88
2022-12-20T06:13:35.950Z,14.95
2022-12-20T06:16:02.863Z,17.23
2022-12-20T06:18:29.656Z,16.75
2022-12-20T06:20:56.799Z,15.50
2022-12-20T06:23:23.662Z,15.00
2022-12-20T06:25:50.740Z,14.88
2022-12-20T06:28:21.991Z,16.15
2022-12-20T06:30:54.190Z,15.40
2022-12-20T06:33:21.357Z,13.35
2022-12-20T06:35:50.548Z,15.73
2022-12-20T06:38:17.649Z,16.15
2022-12-20T06:40:44.606Z,15.82
2022-12-20T06:43:11.809Z,17.00
2022-12-20T06:45:41.899Z,16.30
2022-12-20T06:48:09.547Z,16.20
2022-12-20T06:50:37.132Z,15.52
2022-12-20T06:53:04.211Z,14.40
2022-12-20T06:55:31.006Z,15.13
2022-12-20T06:57:58.143Z,12.93
2022-12-20T07:00:25.089Z,18.00
2022-12-20T07:02:52.419Z,14.57
2022-12-20T07:05:19.671Z,17.13
2022-12-20T07:07:46.575Z,15.65
2022-12-20T07:10:13.481Z,15.88
2022-12-20T07:12:47.203Z,16.50
2022-12-20T07:15:15.006Z,16.33
2022-12-20T07:17:41.840Z,14.57
2022-12-20T07:20:13.210Z,14.90
2022-12-20T07:22:41.143Z,16.73
2022-12-20T07:25:08.243Z,16.67
2022-12-20T07:27:35.610Z,14.77
2022-12-20T07:30:02.552Z,15.13
2022-12-20T07:32:29.830Z,14.20
2022-12-20T07:34:56.661Z,13.82
2022-12-20T07:37:23.550Z,13.15
2022-12-20T07:39:50.420Z,13.55
2022-12-20T07:42:18.012Z,14.63
2022-12-20T07:44:44.830Z,14.55
2022-12-20T07:47:11.701Z,14.68
2022-12-20T07:49:38.505Z,14.65
2022-12-20T07:52:07.523Z,15.23
2022-12-20T07:54:37.959Z,15.57
2022-12-20T07:57:15.132Z,15.55
2022-12-20T07:59:49.537Z,14.70
2022-12-20T08:02:26.849Z,14.55
2022-12-20T08:04:55.455Z,14.43
2022-12-20T08:07:23.249Z,14.77
2022-12-20T08:09:53.162Z,14.13
2022-12-20T08:12:21.675Z,15.75
2022-12-20T08:14:52.324Z,15.23
2022-12-20T08:17:19.180Z,16.85
2022-12-20T08:19:46.116Z,18.45
2022-12-20T08:22:12.892Z,15.10
2022-12-20T08:24:40.578Z,15.70
2022-12-20T08:27:07.343Z,16.02
2022-12-20T08:29:34.560Z,16.70
2022-12-20T08:32:01.525Z,15.07
2022-12-20T08:34:28.296Z,16.20
2022-12-20T08:36:55.120Z,16.38
2022-12-20T08:39:21.857Z,17.02
2022-12-20T08:41:48.631Z,20.58
2022-12-20T08:44:15.445Z,21.13
2022-12-20T08:46:42.365Z,20.40
2022-12-20T08:49:09.244Z,20.52
2022-12-20T08:51:36.135Z,20.75
2022-12-20T08:54:03.455Z,20.80
2022-12-20T08:56:30.596Z,22.25
2022-12-20T08:58:57.711Z,24.27
2022-12-20T09:01:26.881Z,22.90
2022-12-20T09:03:53.894Z,23.30
2022-12-20T09:06:22.779Z,22.85
2022-12-20T09:08:50.341Z,22.85
2022-12-20T09:11:23.892Z,29.05
2022-12-20T09:13:53.735Z,21.42
2022-12-20T09:16:24.080Z,19.27
2022-12-20T09:18:52.639Z,20.10
2022-12-20T09:21:20.276Z,21.30
2022-12-20T09:23:48.414Z,24.52
2022-12-20T09:26:16.779Z,21.30
2022-12-20T09:28:44.289Z,21.88
2022-12-20T09:31:13.701Z,20.38
2022-12-20T09:33:41.506Z,19.08
2022-12-20T09:36:13.117Z,20.13
2022-12-20T09:38:40.710Z,19.23
2022-12-20T09:41:20.685Z,20.77
2022-12-20T09:43:49.912Z,19.55
2022-12-20T09:46:17.705Z,20.25
2022-12-20T09:48:46.442Z,19.27
2022-12-20T09:51:50.016Z,18.88
2022-12-20T09:55:06.183Z,21.23
2022-12-20T09:57:55.585Z,30.15
2022-12-20T10:00:22.552Z,19.92
2022-12-20T10:03:06.701Z,18.55
2022-12-20T10:05:50.139Z,19.55
2022-12-20T10:08:42.714Z,20.02
2022-12-20T10:11:20.559Z,23.60
2022-12-20T10:13:56.621Z,26.00
2022-12-20T10:16:26.270Z,36.30
2022-12-20T10:18:58.410Z,20.65
2022-12-20T10:21:43.136Z,22.13
2022-12-20T10:24:27.810Z,20.48
2022-12-20T10:26:55.084Z,19.23
2022-12-20T10:29:21.996Z,20.15
2022-12-20T10:32:00.502Z,22.42
2022-12-20T10:34:33.304Z,21.58
2022-12-20T10:37:15.935Z,21.15
2022-12-20T10:39:47.316Z,22.67
2022-12-20T10:42:29.588Z,21.98
2022-12-20T10:44:57.814Z,20.75
2022-12-20T10:47:46.167Z,18.02
2022-12-20T10:50:20.035Z,16.05
2022-12-20T10:53:05.001Z,17.17
2022-12-20T10:55:43.078Z,17.73
2022-12-20T10:58:21.377Z,15.13
2022-12-20T11:00:49.788Z,22.92
2022-12-20T11:03:22.314Z,19.83
2022-12-20T11:06:02.577Z,17.88
2022-12-20T11:08:41.265Z,19.15
2022-12-20T11:11:12.957Z,19.45
2022-12-20T11:13:41.320Z,20.00
2022-12-20T11:16:22.979Z,18.60
2022-12-20T11:19:29.539Z,20.02
2022-12-20T11:22:39.343Z,21.27
2022-12-20T11:25:17.171Z,21.13
2022-12-20T11:27:53.641Z,23.23
2022-12-20T11:30:24.460Z,18.98
2022-12-20T11:33:11.859Z,17.88
2022-12-20T11:36:01.314Z,21.35
2022-12-20T11:38:54.006Z,21.70
2022-12-20T11:41:29.718Z,20.88
2022-12-20T11:44:24.464Z,23.00
2022-12-20T11:47:14.499Z,24.30
2022-12-20T11:50:03.467Z,24.10
2022-12-20T11:52:39.161Z,27.45
2022-12-20T11:55:27.420Z,25.48
2022-12-20T11:58:26.363Z,26.55
2022-12-20T12:01:13.900Z,26.92
2022-12-20T12:03:45.978Z,24.40
2022-12-20T12:06:26.341Z,24.33
2022-12-20T12:08:58.022Z,24.83
2022-12-20T12:14:30.197Z,25.75
2022-12-20T12:17:03.747Z,24.10
2022-12-20T12:19:31.472Z,25.67
2022-12-20T12:22:05.421Z,28.50
2022-12-20T12:24:42.648Z,25.52
2022-12-20T12:27:24.929Z,24.75
2022-12-20T12:29:54.448Z,24.80
2022-12-20T12:32:32.519Z,28.05
2022-12-20T12:35:08.524Z,26.58
2022-12-20T12:38:13.380Z,25.77
2022-12-20T12:40:52.089Z,25.92
2022-12-20T12:43:46.146Z,24.30
2022-12-20T12:46:17.230Z,27.58
2022-12-20T12:48:59.644Z,30.02
2022-12-20T12:51:35.695Z,33.33
2022-12-20T12:54:18.057Z,32.28
2022-12-20T12:57:06.909Z,27.08
2022-12-20T12:59:33.771Z,25.63
2022-12-20T13:02:06.823Z,26.83
2022-12-20T13:05:06.340Z,25.65
2022-12-20T13:07:33.486Z,23.15
2022-12-20T13:10:10.216Z,26.85
2022-12-20T13:12:37.034Z,24.02
2022-12-20T13:15:22.071Z,24.65
2022-12-20T13:18:02.606Z,23.95
2022-12-20T13:20:31.546Z,21.92
2022-12-20T13:23:07.717Z,20.63
2022-12-20T13:25:49.311Z,22.05
2022-12-20T13:28:19.616Z,27.05
2022-12-20T13:30:48.384Z,29.83
2022-12-20T13:33:42.092Z,36.05
2022-12-20T13:36:12.034Z,30.90
2022-12-20T13:38:39.389Z,26.50
2022-12-20T13:41:35.724Z,28.83
2022-12-20T13:44:14.968Z,24.13
2022-12-20T13:47:03.712Z,28.05
2022-12-20T13:49:38.594Z,29.65
2022-12-20T13:52:11.407Z,30.98
2022-12-20T13:54:45.166Z,33.35
2022-12-20T13:57:17.234Z,28.23
2022-12-20T14:00:00.049Z,33.53
2022-12-20T14:02:36.696Z,28.85
2022-12-20T14:05:15.016Z,24.80
2022-12-20T14:07:43.676Z,29.63
2022-12-20T14:10:20.834Z,30.27
2022-12-20T14:12:47.763Z,29.50
2022-12-20T14:15:22.498Z,27.40
2022-12-20T14:17:49.369Z,27.83
2022-12-20T14:20:20.559Z,23.35
2022-12-20T14:22:54.979Z,26.80
2022-12-20T14:25:32.703Z,27.80
2022-12-20T14:28:00.335Z,26.52
2022-12-20T14:30:29.316Z,24.40
2022-12-20T14:32:57.080Z,26.73
2022-12-20T14:35:24.804Z,23.08
2022-12-20T14:38:00.533Z,24.55
2022-12-20T14:40:28.516Z,28.92
2022-12-20T14:42:55.902Z,28.27
2022-12-20T14:45:26.711Z,24.65
2022-12-20T14:47:58.540Z,28.45
2022-12-20T14:50:28.234Z,24.17
2022-12-20T14:52:56.279Z,26.23
2022-12-20T14:55:26.873Z,26.25
2022-12-20T14:57:56.106Z,29.65
2022-12-20T15:00:24.465Z,29.05
2022-12-20T15:02:56.138Z,34.88
2022-12-20T15:05:35.649Z,30.10
2022-12-20T15:08:33.909Z,26.70
2022-12-20T15:11:10.432Z,25.73
2022-12-20T15:13:48.868Z,36.05
2022-12-20T15:16:20.249Z,51.67
2022-12-20T15:18:48.117Z,44.28
2022-12-20T15:21:42.819Z,44.42
2022-12-20T15:24:16.825Z,36.25
2022-12-20T15:26:43.694Z,36.97
2022-12-20T15:29:31.176Z,33.42
2022-12-20T15:32:09.266Z,33.33
2022-12-20T15:34:38.568Z,37.15
2022-12-20T15:37:06.460Z,31.63
2022-12-20T15:39:34.242Z,32.53
2022-12-20T15:42:04.550Z,38.50
2022-12-20T15:44:32.215Z,36.15
2022-12-20T15:46:59.604Z,39.35
2022-12-20T15:49:30.434Z,41.45
2022-12-20T15:51:58.343Z,42.42
2022-12-20T15:54:28.383Z,40.33
2022-12-20T15:57:00.188Z,36.60
2022-12-20T16:02:27.072Z,39.45
2022-12-20T16:04:55.314Z,30.17
2022-12-20T16:07:23.480Z,38.55
2022-12-20T16:09:51.111Z,41.17
2022-12-20T16:12:23.212Z,36.70
2022-12-20T16:14:51.770Z,42.13
2022-12-20T16:17:18.608Z,39.53
2022-12-20T16:19:46.611Z,37.50
2022-12-20T16:22:19.035Z,40.38
2022-12-20T16:24:46.151Z,36.67
2022-12-20T16:27:13.186Z,39.60
2022-12-20T16:29:41.574Z,35.38
2022-12-20T16:32:17.688Z,36.45
2022-12-20T16:34:45.684Z,44.30
2022-12-20T16:37:12.673Z,31.98
2022-12-20T16:39:39.834Z,27.08
2022-12-20T16:42:18.078Z,33.88
2022-12-20T16:44:46.124Z,36.38
2022-12-20T16:47:14.918Z,34.63
2022-12-20T16:49:52.261Z,35.60
2022-12-20T16:52:22.425Z,32.00
2022-12-20T16:54:50.838Z,29.52
2022-12-20T16:57:18.266Z,34.33
2022-12-20T16:59:45.164Z,26.85
2022-12-20T17:02:33.299Z,27.30
2022-12-20T17:05:00.669Z,30.20
2022-12-20T17:07:27.743Z,30.77
2022-12-20T17:10:13.102Z,30.33
2022-12-20T17:12:40.420Z,21.70
2022-12-20T17:15:20.224Z,34.35
2022-12-20T17:17:48.725Z,28.98
2022-12-20T17:20:17.445Z,32.17
2022-12-20T17:22:45.221Z,33.58
2022-12-20T17:25:35.337Z,30.80
2022-12-20T17:28:02.192Z,41.42
2022-12-20T17:30:29.057Z,36.22
2022-12-20T17:32:55.889Z,31.58
2022-12-20T17:35:27.768Z,35.03
2022-12-20T17:37:56.343Z,38.72
2022-12-20T17:40:25.027Z,31.52
2022-12-20T17:42:52.490Z,37.38
2022-12-20T17:45:36.179Z,49.17
2022-12-20T17:48:04.841Z,34.70
2022-12-20T17:50:31.723Z,38.28
2022-12-20T17:52:59.050Z,35.92
2022-12-20T17:55:28.033Z,42.05
2022-12-20T17:57:56.063Z,35.60
2022-12-20T18:00:38.073Z,43.20
2022-12-20T18:03:07.265Z,34.38
2022-12-20T18:05:34.776Z,38.88
2022-12-20T18:08:02.134Z,37.85
2022-12-20T18:10:29.012Z,48.80
2022-12-20T18:12:55.898Z,40.50
2022-12-20T18:15:23.049Z,34.65
2022-12-20T18:17:49.907Z,35.53
2022-12-20T18:20:17.476Z,40.50
2022-12-20T18:22:44.451Z,38.72
2022-12-20T18:25:13.954Z,33.28
2022-12-20T18:27:42.891Z,38.05
2022-12-20T18:30:12.233Z,38.58
2022-12-20T18:32:40.975Z,40.58
2022-12-20T18:35:09.550Z,35.80
2022-12-20T18:37:36.730Z,36.03
2022-12-20T18:40:04.313Z,36.85
2022-12-20T18:42:31.676Z,43.78
2022-12-20T18:44:58.706Z,36.40
2022-12-20T18:47:25.966Z,29.05
2022-12-20T18:49:52.951Z,31.15
2022-12-20T18:52:19.903Z,27.73
2022-12-20T18:54:47.351Z,36.05
2022-12-20T18:57:14.500Z,37.15
2022-12-20T18:59:41.659Z,37.08
2022-12-20T19:02:12.764Z,25.30
2022-12-20T19:04:40.314Z,23.23
2022-12-20T19:07:08.298Z,26.83
2022-12-20T19:09:35.279Z,28.23
2022-12-20T19:12:02.401Z,49.88
2022-12-20T19:14:29.543Z,44.47
2022-12-20T19:16:56.585Z,31.40
2022-12-20T19:19:23.496Z,37.80
2022-12-20T19:21:50.408Z,30.05
2022-12-20T19:24:17.796Z,34.97
2022-12-20T19:26:45.015Z,28.25
2022-12-20T19:29:12.219Z,33.33
2022-12-20T19:31:39.402Z,37.30
2022-12-20T19:34:09.026Z,34.60
2022-12-20T19:36:38.918Z,36.33
2022-12-20T19:39:08.287Z,35.20
2022-12-20T19:41:35.891Z,35.38
2022-12-20T19:44:04.429Z,36.88
2022-12-20T19:46:31.853Z,36.70
2022-12-20T19:48:59.764Z,40.25
2022-12-20T19:51:28.647Z,32.55
2022-12-20T19:53:57.010Z,40.13
2022-12-20T19:56:26.551Z,39.13
2022-12-20T19:58:55.421Z,39.13
2022-12-20T20:01:25.835Z,39.33
2022-12-20T20:03:53.990Z,40.38
2022-12-20T20:06:22.349Z,38.67
2022-12-20T20:08:49.762Z,37.08
2022-12-20T20:11:19.013Z,38.97
2022-12-20T20:13:46.639Z,37.85
2022-12-20T20:16:18.439Z,38.35
2022-12-20T20:18:49.403Z,36.33
2022-12-20T20:21:21.622Z,36.60
2022-12-20T20:23:50.899Z,39.20
2022-12-20T20:26:21.109Z,38.60
2022-12-20T20:28:48.098Z,41.45
2022-12-20T20:31:16.319Z,31.80
2022-12-20T20:33:44.041Z,33.28
2022-12-20T20:36:14.688Z,36.72
2022-12-20T20:38:42.183Z,42.92
2022-12-20T20:41:10.310Z,32.83
2022-12-20T20:43:38.282Z,40.97
2022-12-20T20:46:08.237Z,40.05
2022-12-20T20:48:35.900Z,41.50
2022-12-20T20:51:03.375Z,33.72
2022-12-20T20:53:34.006Z,38.50
2022-12-20T20:56:02.728Z,41.80
2022-12-20T20:58:30.700Z,39.47
2022-12-20T21:01:00.170Z,37.40
2022-12-20T21:03:28.708Z,40.00
2022-12-20T21:08:44.704Z,30.55
2022-12-20T21:11:12.035Z,37.70
2022-12-20T21:13:39.159Z,33.22
2022-12-20T21:16:07.017Z,32.55
2022-12-20T21:18:33.869Z,36.10
2022-12-20T21:21:06.192Z,31.98
2022-12-20T21:23:33.169Z,32.97
2022-12-20T21:26:00.458Z,37.90
2022-12-20T21:28:27.928Z,39.22
2022-12-20T21:31:02.550Z,35.03
2022-12-20T21:33:30.132Z,33.33
2022-12-20T21:36:01.718Z,36.35
2022-12-20T21:38:29.207Z,40.75
2022-12-20T21:41:01.081Z,44.95
2022-12-20T21:43:28.660Z,36.35
2022-12-20T21:45:56.555Z,42.05
2022-12-20T21:48:24.440Z,37.80
2022-12-20T21:51:10.177Z,40.20
2022-12-20T21:53:54.921Z,39.13
2022-12-20T21:56:23.221Z,38.97
2022-12-20T21:58:50.797Z,41.70
2022-12-20T22:01:20.743Z,38.63
2022-12-20T22:03:53.687Z,38.33
2022-12-20T22:06:20.743Z,32.92
2022-12-20T22:08:47.786Z,37.35
2022-12-20T22:11:17.967Z,36.92
2022-12-20T22:13:46.234Z,39.00
2022-12-20T22:16:17.586Z,37.60
2022-12-20T22:18:47.809Z,38.97
2022-12-20T22:21:15.570Z,35.45
2022-12-20T22:23:42.843Z,34.20
2022-12-20T22:26:13.272Z,40.92
2022-12-20T22:28:47.857Z,35.38
2022-12-20T22:31:15.746Z,32.70
2022-12-20T22:33:43.195Z,33.88
2022-12-20T22:36:12.928Z,27.02
2022-12-20T22:38:40.045Z,36.58
2022-12-20T22:41:12.858Z,32.47
2022-12-20T22:43:44.689Z,36.17
2022-12-20T22:46:13.093Z,37.13
2022-12-20T22:48:40.750Z,31.25
2022-12-20T22:51:13.305Z,29.60
2022-12-20T22:53:41.499Z,33.10
2022-12-20T22:56:09.245Z,32.28
2022-12-20T22:58:36.789Z,35.63
2022-12-20T23:01:07.315Z,33.78
2022-12-20T23:03:34.636Z,30.05
2022-12-20T23:06:04.204Z,37.10
2022-12-20T23:08:32.820Z,33.13
2022-12-20T23:11:18.497Z,29.90
2022-12-20T23:14:04.030Z,35.38
2022-12-20T23:16:33.368Z,33.08
2022-12-20T23:19:02.084Z,27.63
2022-12-20T23:21:48.146Z,27.00
2022-12-20T23:24:15.657Z,29.17
2022-12-20T23:26:43.359Z,27.08
2022-12-20T23:29:11.522Z,30.98
2022-12-20T23:31:38.449Z,35.13
2022-12-20T23:34:05.521Z,30.25
2022-12-20T23:36:35.310Z,28.63
2022-12-20T23:39:12.041Z,26.13
2022-12-20T23:41:39.022Z,25.50
2022-12-20T23:44:06.951Z,26.52
2022-12-20T23:46:34.239Z,28.45
2022-12-20T23:49:01.529Z,22.17
2022-12-20T23:51:30.238Z,30.60
2022-12-20T23:53:57.396Z,29.50
2022-12-20T23:56:24.210Z,25.13
2022-12-20T23:58:53.726Z,26.58
